sensor_id;sensor_type;location;lat;lon;timestamp;pressure;altitude;pressure_sealevel;temperature;humidity
8160;BME280;27404;52.398;9.646;2023-03-14T00:00:55;98338.22;;;8.65;100.00
8160;BME280;27404;52.398;9.646;2023-03-14T00:03:20;98337.38;;;8.64;100.00
8160;BME280;27404;52.398;9.646;2023-03-14T00:05:46;98317.22;;;8.65;100.00
8160;BME280;27404;52.398;9.646;2023-03-14T00:08:11;98301.19;;;8.58;100.00
8160;BME280;27404;52.398;9.646;2023-03-14T00:10:37;98277.00;;;8.52;100.00
8160;BME280;27404;52.398;9.646;2023-03-14T00:13:03;98275.66;;;8.49;100.00
8160;BME280;27404;52.398;9.646;2023-03-14T00:15:28;98268.84;;;8.41;100.00
8160;BME280;27404;52.398;9.646;2023-03-14T00:17:54;98261.75;;;8.56;100.00
8160;BME280;27404;52.398;9.646;2023-03-14T00:20:19;98259.75;;;8.67;100.00
8160;BME280;27404;52.398;9.646;2023-03-14T00:22:45;98276.59;;;8.74;100.00
8160;BME280;27404;52.398;9.646;2023-03-14T00:25:11;98275.72;;;8.84;100.00
8160;BME280;27404;52.398;9.646;2023-03-14T00:27:37;98272.63;;;8.96;100.00
8160;BME280;27404;52.398;9.646;2023-03-14T00:30:04;98278.81;;;9.12;100.00
8160;BME280;27404;52.398;9.646;2023-03-14T00:32:30;98307.63;;;9.23;100.00
8160;BME280;27404;52.398;9.646;2023-03-14T00:34:55;98300.22;;;9.24;100.00
8160;BME280;27404;52.398;9.646;2023-03-14T00:37:21;98302.97;;;9.24;100.00
8160;BME280;27404;52.398;9.646;2023-03-14T00:39:46;98300.19;;;9.29;100.00
8160;BME280;27404;52.398;9.646;2023-03-14T00:42:12;98294.78;;;9.24;100.00
8160;BME280;27404;52.398;9.646;2023-03-14T00:44:38;98316.88;;;9.22;100.00
8160;BME280;27404;52.398;9.646;2023-03-14T00:47:04;98321.81;;;9.20;100.00
8160;BME280;27404;52.398;9.646;2023-03-14T00:49:29;98313.34;;;9.22;100.00
8160;BME280;27404;52.398;9.646;2023-03-14T00:51:54;98312.50;;;9.26;100.00
8160;BME280;27404;52.398;9.646;2023-03-14T00:54:20;98315.22;;;9.26;100.00
8160;BME280;27404;52.398;9.646;2023-03-14T00:56:46;98302.81;;;9.44;100.00
8160;BME280;27404;52.398;9.646;2023-03-14T00:59:12;98306.59;;;9.48;100.00
8160;BME280;27404;52.398;9.646;2023-03-14T01:01:39;98313.09;;;9.53;100.00
8160;BME280;27404;52.398;9.646;2023-03-14T01:04:04;98294.59;;;9.50;100.00
8160;BME280;27404;52.398;9.646;2023-03-14T01:06:30;98287.88;;;9.31;100.00
8160;BME280;27404;52.398;9.646;2023-03-14T01:08:56;98277.66;;;9.18;100.00
8160;BME280;27404;52.398;9.646;2023-03-14T01:11:29;98272.53;;;9.11;100.00
8160;BME280;27404;52.398;9.646;2023-03-14T01:13:55;98265.63;;;9.24;100.00
8160;BME280;27404;52.398;9.646;2023-03-14T01:16:23;98274.72;;;9.09;100.00
8160;BME280;27404;52.398;9.646;2023-03-14T01:18:49;98269.59;;;9.02;100.00
8160;BME280;27404;52.398;9.646;2023-03-14T01:21:27;98258.50;;;8.94;100.00
8160;BME280;27404;52.398;9.646;2023-03-14T01:23:54;98266.97;;;8.87;100.00
8160;BME280;27404;52.398;9.646;2023-03-14T01:26:22;98258.53;;;8.88;100.00
8160;BME280;27404;52.398;9.646;2023-03-14T01:28:49;98252.78;;;8.90;100.00
8160;BME280;27404;52.398;9.646;2023-03-14T01:31:15;98248.81;;;9.12;100.00
8160;BME280;27404;52.398;9.646;2023-03-14T01:33:41;98261.38;;;9.08;100.00
8160;BME280;27404;52.398;9.646;2023-03-14T01:36:07;98239.06;;;9.06;100.00
8160;BME280;27404;52.398;9.646;2023-03-14T01:38:34;98248.03;;;9.06;100.00
8160;BME280;27404;52.398;9.646;2023-03-14T01:41:00;98265.19;;;9.41;100.00
8160;BME280;27404;52.398;9.646;2023-03-14T01:43:27;98265.25;;;9.36;100.00
8160;BME280;27404;52.398;9.646;2023-03-14T01:53:47;98211.41;;;9.47;100.00
8160;BME280;27404;52.398;9.646;2023-03-14T01:56:15;98207.06;;;9.46;100.00
8160;BME280;27404;52.398;9.646;2023-03-14T01:58:46;98206.47;;;9.49;100.00
8160;BME280;27404;52.398;9.646;2023-03-14T02:01:16;98226.16;;;9.46;100.00
8160;BME280;27404;52.398;9.646;2023-03-14T02:03:54;98223.19;;;9.42;100.00
8160;BME280;27404;52.398;9.646;2023-03-14T02:06:24;98235.44;;;9.45;100.00
8160;BME280;27404;52.398;9.646;2023-03-14T02:08:51;98243.59;;;9.45;100.00
8160;BME280;27404;52.398;9.646;2023-03-14T02:11:18;98223.16;;;9.47;100.00
8160;BME280;27404;52.398;9.646;2023-03-14T02:13:44;98241.66;;;9.51;100.00
8160;BME280;27404;52.398;9.646;2023-03-14T02:16:10;98242.13;;;9.58;100.00
8160;BME280;27404;52.398;9.646;2023-03-14T02:18:36;98246.84;;;9.76;100.00
8160;BME280;27404;52.398;9.646;2023-03-14T02:26:29;98253.69;;;9.74;100.00
8160;BME280;27404;52.398;9.646;2023-03-14T02:28:57;98247.88;;;9.81;100.00
8160;BME280;27404;52.398;9.646;2023-03-14T02:31:23;98234.28;;;9.75;100.00
8160;BME280;27404;52.398;9.646;2023-03-14T02:33:49;98232.56;;;9.85;100.00
8160;BME280;27404;52.398;9.646;2023-03-14T02:36:17;98232.81;;;9.88;100.00
8160;BME280;27404;52.398;9.646;2023-03-14T02:41:17;98224.56;;;9.93;100.00
8160;BME280;27404;52.398;9.646;2023-03-14T02:43:42;98228.16;;;9.89;100.00
8160;BME280;27404;52.398;9.646;2023-03-14T02:46:11;98219.91;;;9.94;100.00
8160;BME280;27404;52.398;9.646;2023-03-14T02:48:43;98219.97;;;9.89;100.00
8160;BME280;27404;52.398;9.646;2023-03-14T02:51:12;98212.13;;;9.82;100.00
8160;BME280;27404;52.398;9.646;2023-03-14T02:53:38;98207.22;;;9.84;100.00
8160;BME280;27404;52.398;9.646;2023-03-14T02:56:04;98214.03;;;9.82;100.00
8160;BME280;27404;52.398;9.646;2023-03-14T02:58:30;98212.41;;;9.81;100.00
8160;BME280;27404;52.398;9.646;2023-03-14T03:00:55;98216.03;;;9.76;100.00
8160;BME280;27404;52.398;9.646;2023-03-14T03:03:21;98219.16;;;9.88;100.00
8160;BME280;27404;52.398;9.646;2023-03-14T03:05:51;98209.06;;;9.89;100.00
8160;BME280;27404;52.398;9.646;2023-03-14T03:08:17;98200.66;;;9.85;100.00
8160;BME280;27404;52.398;9.646;2023-03-14T03:10:43;98206.22;;;9.75;100.00
8160;BME280;27404;52.398;9.646;2023-03-14T03:13:08;98202.13;;;9.72;100.00
8160;BME280;27404;52.398;9.646;2023-03-14T03:15:34;98209.47;;;9.77;100.00
8160;BME280;27404;52.398;9.646;2023-03-14T03:17:59;98205.84;;;9.82;100.00
8160;BME280;27404;52.398;9.646;2023-03-14T03:20:25;98201.56;;;9.75;100.00
8160;BME280;27404;52.398;9.646;2023-03-14T03:22:50;98192.56;;;9.75;100.00
8160;BME280;27404;52.398;9.646;2023-03-14T03:25:16;98185.44;;;9.79;100.00
8160;BME280;27404;52.398;9.646;2023-03-14T03:27:42;98175.63;;;9.78;100.00
8160;BME280;27404;52.398;9.646;2023-03-14T03:30:08;98178.88;;;9.80;100.00
8160;BME280;27404;52.398;9.646;2023-03-14T03:32:34;98173.16;;;9.76;100.00
8160;BME280;27404;52.398;9.646;2023-03-14T03:34:59;98168.94;;;9.89;100.00
8160;BME280;27404;52.398;9.646;2023-03-14T03:37:25;98167.13;;;9.80;100.00
8160;BME280;27404;52.398;9.646;2023-03-14T03:39:51;98173.16;;;9.76;100.00
8160;BME280;27404;52.398;9.646;2023-03-14T03:42:17;98194.59;;;9.88;100.00
8160;BME280;27404;52.398;9.646;2023-03-14T03:44:43;98214.97;;;9.72;100.00
8160;BME280;27404;52.398;9.646;2023-03-14T03:47:09;98218.31;;;9.39;100.00
8160;BME280;27404;52.398;9.646;2023-03-14T03:49:34;98207.22;;;8.96;100.00
8160;BME280;27404;52.398;9.646;2023-03-14T03:52:00;98213.66;;;8.76;100.00
8160;BME280;27404;52.398;9.646;2023-03-14T03:54:25;98220.81;;;8.66;100.00
8160;BME280;27404;52.398;9.646;2023-03-14T03:56:51;98210.25;;;8.54;100.00
8160;BME280;27404;52.398;9.646;2023-03-14T03:59:17;98200.78;;;8.47;100.00
8160;BME280;27404;52.398;9.646;2023-03-14T04:01:43;98195.63;;;8.40;100.00
8160;BME280;27404;52.398;9.646;2023-03-14T04:04:08;98189.66;;;8.33;100.00
8160;BME280;27404;52.398;9.646;2023-03-14T04:06:34;98186.72;;;8.24;100.00
8160;BME280;27404;52.398;9.646;2023-03-14T04:08:59;98184.03;;;8.19;100.00
8160;BME280;27404;52.398;9.646;2023-03-14T04:11:25;98191.41;;;8.18;100.00
8160;BME280;27404;52.398;9.646;2023-03-14T04:13:50;98185.69;;;8.14;100.00
8160;BME280;27404;52.398;9.646;2023-03-14T04:16:23;98190.91;;;8.11;100.00
8160;BME280;27404;52.398;9.646;2023-03-14T04:18:50;98192.25;;;8.08;100.00
8160;BME280;27404;52.398;9.646;2023-03-14T04:21:16;98197.47;;;7.99;100.00
8160;BME280;27404;52.398;9.646;2023-03-14T04:23:42;98193.16;;;7.88;100.00
8160;BME280;27404;52.398;9.646;2023-03-14T04:26:07;98181.19;;;7.89;100.00
8160;BME280;27404;52.398;9.646;2023-03-14T04:28:33;98187.72;;;7.93;100.00
8160;BME280;27404;52.398;9.646;2023-03-14T04:30:58;98177.38;;;7.90;100.00
8160;BME280;27404;52.398;9.646;2023-03-14T04:33:24;98182.59;;;7.81;100.00
8160;BME280;27404;52.398;9.646;2023-03-14T04:35:53;98191.03;;;7.75;100.00
8160;BME280;27404;52.398;9.646;2023-03-14T04:38:19;98179.06;;;7.76;100.00
8160;BME280;27404;52.398;9.646;2023-03-14T04:40:44;98175.25;;;7.77;100.00
8160;BME280;27404;52.398;9.646;2023-03-14T04:43:11;98181.56;;;7.62;100.00
8160;BME280;27404;52.398;9.646;2023-03-14T04:45:37;98178.84;;;7.62;100.00
8160;BME280;27404;52.398;9.646;2023-03-14T04:48:03;98162.00;;;7.60;100.00
8160;BME280;27404;52.398;9.646;2023-03-14T04:50:28;98160.69;;;7.52;100.00
8160;BME280;27404;52.398;9.646;2023-03-14T04:52:54;98160.41;;;7.48;100.00
8160;BME280;27404;52.398;9.646;2023-03-14T04:55:19;98153.88;;;7.44;100.00
8160;BME280;27404;52.398;9.646;2023-03-14T04:57:44;98156.88;;;7.48;100.00
8160;BME280;27404;52.398;9.646;2023-03-14T05:00:10;98156.88;;;7.48;100.00
8160;BME280;27404;52.398;9.646;2023-03-14T05:02:36;98158.78;;;7.47;100.00
8160;BME280;27404;52.398;9.646;2023-03-14T05:05:02;98150.06;;;7.45;100.00
8160;BME280;27404;52.398;9.646;2023-03-14T05:07:27;98135.94;;;7.43;100.00
8160;BME280;27404;52.398;9.646;2023-03-14T05:09:53;98132.16;;;7.44;100.00
8160;BME280;27404;52.398;9.646;2023-03-14T05:12:19;98139.75;;;7.42;100.00
8160;BME280;27404;52.398;9.646;2023-03-14T05:14:45;98122.69;;;7.31;100.00
8160;BME280;27404;52.398;9.646;2023-03-14T05:17:11;98126.50;;;7.20;100.00
8160;BME280;27404;52.398;9.646;2023-03-14T05:19:39;98129.22;;;7.20;100.00
8160;BME280;27404;52.398;9.646;2023-03-14T05:22:05;98127.59;;;7.19;100.00
8160;BME280;27404;52.398;9.646;2023-03-14T05:24:30;98139.84;;;7.06;100.00
8160;BME280;27404;52.398;9.646;2023-03-14T05:26:56;98124.91;;;7.08;100.00
8160;BME280;27404;52.398;9.646;2023-03-14T05:29:21;98144.16;;;7.28;100.00
8160;BME280;27404;52.398;9.646;2023-03-14T05:31:46;98148.22;;;7.30;100.00
8160;BME280;27404;52.398;9.646;2023-03-14T05:34:12;98144.13;;;7.38;100.00
8160;BME280;27404;52.398;9.646;2023-03-14T05:36:38;98140.06;;;7.40;100.00
8160;BME280;27404;52.398;9.646;2023-03-14T05:39:03;98151.19;;;7.39;100.00
8160;BME280;27404;52.398;9.646;2023-03-14T05:41:28;98150.09;;;7.35;100.00
8160;BME280;27404;52.398;9.646;2023-03-14T05:43:54;98151.75;;;7.31;100.00
8160;BME280;27404;52.398;9.646;2023-03-14T05:46:19;98146.06;;;7.22;100.00
8160;BME280;27404;52.398;9.646;2023-03-14T05:48:45;98153.69;;;7.20;100.00
8160;BME280;27404;52.398;9.646;2023-03-14T05:51:10;98151.78;;;7.25;100.00
8160;BME280;27404;52.398;9.646;2023-03-14T05:53:36;98146.59;;;7.29;100.00
8160;BME280;27404;52.398;9.646;2023-03-14T05:56:01;98145.78;;;7.29;100.00
8160;BME280;27404;52.398;9.646;2023-03-14T05:58:27;98146.31;;;7.31;100.00
8160;BME280;27404;52.398;9.646;2023-03-14T06:00:52;98150.41;;;7.33;100.00
8160;BME280;27404;52.398;9.646;2023-03-14T06:03:18;98140.91;;;7.25;100.00
8160;BME280;27404;52.398;9.646;2023-03-14T06:05:43;98138.44;;;7.34;100.00
8160;BME280;27404;52.398;9.646;2023-03-14T06:08:09;98140.06;;;7.35;100.00
8160;BME280;27404;52.398;9.646;2023-03-14T06:10:35;98138.13;;;7.36;100.00
8160;BME280;27404;52.398;9.646;2023-03-14T06:13:01;98137.34;;;7.40;100.00
8160;BME280;27404;52.398;9.646;2023-03-14T06:15:27;98124.53;;;7.46;100.00
8160;BME280;27404;52.398;9.646;2023-03-14T06:17:54;98126.72;;;7.39;100.00
8160;BME280;27404;52.398;9.646;2023-03-14T06:20:20;98133.50;;;7.47;100.00
8160;BME280;27404;52.398;9.646;2023-03-14T06:22:45;98140.00;;;7.56;100.00
8160;BME280;27404;52.398;9.646;2023-03-14T06:25:11;98137.16;;;7.82;100.00
8160;BME280;27404;52.398;9.646;2023-03-14T06:27:36;98143.63;;;7.96;100.00
8160;BME280;27404;52.398;9.646;2023-03-14T06:30:02;98144.97;;;7.99;100.00
8160;BME280;27404;52.398;9.646;2023-03-14T06:32:28;98143.03;;;8.05;100.00
8160;BME280;27404;52.398;9.646;2023-03-14T06:34:53;98138.91;;;8.12;100.00
8160;BME280;27404;52.398;9.646;2023-03-14T06:37:19;98135.31;;;8.22;100.00
8160;BME280;27404;52.398;9.646;2023-03-14T06:39:44;98139.91;;;8.27;100.00
8160;BME280;27404;52.398;9.646;2023-03-14T06:42:10;98136.06;;;8.33;100.00
8160;BME280;27404;52.398;9.646;2023-03-14T06:44:35;98135.13;;;8.48;100.00
8160;BME280;27404;52.398;9.646;2023-03-14T06:47:01;98138.38;;;8.55;100.00
8160;BME280;27404;52.398;9.646;2023-03-14T06:49:27;98136.44;;;8.61;100.00
8160;BME280;27404;52.398;9.646;2023-03-14T06:51:52;98137.19;;;8.67;100.00
8160;BME280;27404;52.398;9.646;2023-03-14T06:54:17;98143.94;;;8.74;100.00
8160;BME280;27404;52.398;9.646;2023-03-14T06:56:43;98147.69;;;8.84;100.00
8160;BME280;27404;52.398;9.646;2023-03-14T06:59:08;98144.38;;;8.87;100.00
8160;BME280;27404;52.398;9.646;2023-03-14T07:01:34;98144.56;;;8.96;100.00
8160;BME280;27404;52.398;9.646;2023-03-14T07:04:00;98141.75;;;9.06;100.00
8160;BME280;27404;52.398;9.646;2023-03-14T07:06:25;98148.03;;;9.07;100.00
8160;BME280;27404;52.398;9.646;2023-03-14T07:08:51;98147.88;;;8.93;100.00
8160;BME280;27404;52.398;9.646;2023-03-14T07:11:16;98145.22;;;8.87;100.00
8160;BME280;27404;52.398;9.646;2023-03-14T07:13:42;98144.72;;;8.80;100.00
8160;BME280;27404;52.398;9.646;2023-03-14T07:16:08;98145.88;;;8.74;100.00
8160;BME280;27404;52.398;9.646;2023-03-14T07:18:34;98151.78;;;8.81;100.00
8160;BME280;27404;52.398;9.646;2023-03-14T07:20:59;98157.38;;;8.95;100.00
8160;BME280;27404;52.398;9.646;2023-03-14T07:23:24;98158.19;;;8.96;100.00
8160;BME280;27404;52.398;9.646;2023-03-14T07:25:50;98162.53;;;8.97;100.00
8160;BME280;27404;52.398;9.646;2023-03-14T07:28:17;98157.16;;;8.92;100.00
8160;BME280;27404;52.398;9.646;2023-03-14T07:30:42;98162.69;;;8.81;100.00
8160;BME280;27404;52.398;9.646;2023-03-14T07:33:07;98157.44;;;8.90;100.00
8160;BME280;27404;52.398;9.646;2023-03-14T07:35:33;98158.78;;;8.93;100.00
8160;BME280;27404;52.398;9.646;2023-03-14T07:37:58;98165.00;;;8.98;100.00
8160;BME280;27404;52.398;9.646;2023-03-14T07:40:24;98167.91;;;9.07;100.00
8160;BME280;27404;52.398;9.646;2023-03-14T07:42:49;98167.38;;;9.05;100.00
8160;BME280;27404;52.398;9.646;2023-03-14T07:45:15;98183.19;;;9.03;100.00
8160;BME280;27404;52.398;9.646;2023-03-14T07:47:40;98188.47;;;8.94;100.00
8160;BME280;27404;52.398;9.646;2023-03-14T07:50:06;98179.84;;;8.82;100.00
8160;BME280;27404;52.398;9.646;2023-03-14T07:52:32;98176.06;;;8.78;100.00
8160;BME280;27404;52.398;9.646;2023-03-14T07:54:58;98168.22;;;8.71;100.00
8160;BME280;27404;52.398;9.646;2023-03-14T07:57:23;98167.16;;;8.67;100.00
8160;BME280;27404;52.398;9.646;2023-03-14T07:59:49;98166.84;;;8.68;100.00
8160;BME280;27404;52.398;9.646;2023-03-14T08:02:15;98172.22;;;8.79;100.00
8160;BME280;27404;52.398;9.646;2023-03-14T08:04:41;98170.00;;;8.86;100.00
8160;BME280;27404;52.398;9.646;2023-03-14T08:07:07;98172.69;;;8.91;100.00
8160;BME280;27404;52.398;9.646;2023-03-14T08:09:33;98176.16;;;8.97;100.00
8160;BME280;27404;52.398;9.646;2023-03-14T08:11:58;98178.56;;;9.03;100.00
8160;BME280;27404;52.398;9.646;2023-03-14T08:14:24;98175.69;;;8.89;100.00
8160;BME280;27404;52.398;9.646;2023-03-14T08:16:50;98175.91;;;8.98;100.00
8160;BME280;27404;52.398;9.646;2023-03-14T08:19:16;98182.25;;;8.88;100.00
8160;BME280;27404;52.398;9.646;2023-03-14T08:21:41;98176.88;;;8.78;100.00
8160;BME280;27404;52.398;9.646;2023-03-14T08:24:07;98172.41;;;8.93;100.00
8160;BME280;27404;52.398;9.646;2023-03-14T08:26:32;98175.53;;;9.05;100.00
8160;BME280;27404;52.398;9.646;2023-03-14T08:28:58;98178.50;;;9.14;100.00
8160;BME280;27404;52.398;9.646;2023-03-14T08:31:24;98175.25;;;9.36;100.00
8160;BME280;27404;52.398;9.646;2023-03-14T08:33:49;98181.19;;;9.68;100.00
8160;BME280;27404;52.398;9.646;2023-03-14T08:36:17;98176.47;;;9.73;100.00
8160;BME280;27404;52.398;9.646;2023-03-14T08:38:43;98169.06;;;9.55;100.00
8160;BME280;27404;52.398;9.646;2023-03-14T08:41:09;98184.06;;;9.28;100.00
8160;BME280;27404;52.398;9.646;2023-03-14T08:43:34;98182.50;;;9.22;100.00
8160;BME280;27404;52.398;9.646;2023-03-14T08:46:01;98179.03;;;9.40;100.00
8160;BME280;27404;52.398;9.646;2023-03-14T08:48:28;98185.13;;;9.56;100.00
8160;BME280;27404;52.398;9.646;2023-03-14T08:50:56;98189.66;;;9.66;100.00
8160;BME280;27404;52.398;9.646;2023-03-14T08:53:21;98183.47;;;9.60;100.00
8160;BME280;27404;52.398;9.646;2023-03-14T08:55:52;98181.78;;;9.65;100.00
8160;BME280;27404;52.398;9.646;2023-03-14T08:58:18;98180.19;;;9.83;100.00
8160;BME280;27404;52.398;9.646;2023-03-14T09:00:44;98177.84;;;9.76;100.00
8160;BME280;27404;52.398;9.646;2023-03-14T09:03:12;98179.72;;;9.75;100.00
8160;BME280;27404;52.398;9.646;2023-03-14T09:05:38;98186.28;;;9.74;100.00
8160;BME280;27404;52.398;9.646;2023-03-14T09:08:03;98189.53;;;9.76;100.00
8160;BME280;27404;52.398;9.646;2023-03-14T09:10:29;98182.59;;;9.89;100.00
8160;BME280;27404;52.398;9.646;2023-03-14T09:12:54;98181.06;;;10.02;100.00
8160;BME280;27404;52.398;9.646;2023-03-14T09:15:20;98177.94;;;10.09;100.00
8160;BME280;27404;52.398;9.646;2023-03-14T09:17:45;98180.41;;;10.11;100.00
8160;BME280;27404;52.398;9.646;2023-03-14T09:20:11;98182.84;;;10.31;100.00
8160;BME280;27404;52.398;9.646;2023-03-14T09:22:36;98178.28;;;10.27;100.00
8160;BME280;27404;52.398;9.646;2023-03-14T09:25:03;98177.31;;;10.17;100.00
8160;BME280;27404;52.398;9.646;2023-03-14T09:27:29;98185.81;;;10.16;100.00
8160;BME280;27404;52.398;9.646;2023-03-14T09:29:54;98183.81;;;10.21;100.00
8160;BME280;27404;52.398;9.646;2023-03-14T09:32:20;98176.84;;;10.10;100.00
8160;BME280;27404;52.398;9.646;2023-03-14T09:34:45;98189.81;;;10.43;100.00
8160;BME280;27404;52.398;9.646;2023-03-14T09:37:11;98185.03;;;10.54;100.00
8160;BME280;27404;52.398;9.646;2023-03-14T09:39:36;98189.59;;;10.58;100.00
8160;BME280;27404;52.398;9.646;2023-03-14T09:42:04;98188.94;;;10.47;100.00
8160;BME280;27404;52.398;9.646;2023-03-14T09:44:35;98187.19;;;10.57;100.00
8160;BME280;27404;52.398;9.646;2023-03-14T09:47:05;98182.31;;;10.87;100.00
8160;BME280;27404;52.398;9.646;2023-03-14T09:49:37;98186.41;;;10.89;100.00
8160;BME280;27404;52.398;9.646;2023-03-14T09:52:20;98179.09;;;10.99;100.00
8160;BME280;27404;52.398;9.646;2023-03-14T09:54:50;98180.28;;;11.11;100.00
8160;BME280;27404;52.398;9.646;2023-03-14T09:57:18;98189.97;;;11.04;100.00
8160;BME280;27404;52.398;9.646;2023-03-14T09:59:45;98183.09;;;11.06;100.00
8160;BME280;27404;52.398;9.646;2023-03-14T10:04:47;98181.66;;;11.56;100.00
8160;BME280;27404;52.398;9.646;2023-03-14T10:07:15;98178.63;;;11.85;100.00
8160;BME280;27404;52.398;9.646;2023-03-14T10:09:43;98178.13;;;11.83;100.00
8160;BME280;27404;52.398;9.646;2023-03-14T10:12:09;98178.34;;;11.87;100.00
8160;BME280;27404;52.398;9.646;2023-03-14T10:14:45;98172.53;;;11.47;100.00
8160;BME280;27404;52.398;9.646;2023-03-14T10:17:13;98170.59;;;11.33;100.00
8160;BME280;27404;52.398;9.646;2023-03-14T10:19:59;98170.91;;;11.32;100.00
8160;BME280;27404;52.398;9.646;2023-03-14T10:22:29;98171.69;;;11.32;100.00
8160;BME280;27404;52.398;9.646;2023-03-14T10:25:02;98171.44;;;11.76;100.00
8160;BME280;27404;52.398;9.646;2023-03-14T10:27:31;98173.38;;;11.89;100.00
8160;BME280;27404;52.398;9.646;2023-03-14T10:30:03;98174.66;;;11.92;100.00
8160;BME280;27404;52.398;9.646;2023-03-14T10:37:58;98183.59;;;11.69;100.00
8160;BME280;27404;52.398;9.646;2023-03-14T10:40:38;98182.06;;;11.63;100.00
8160;BME280;27404;52.398;9.646;2023-03-14T10:43:06;98184.34;;;11.28;100.00
8160;BME280;27404;52.398;9.646;2023-03-14T10:45:35;98177.31;;;11.08;100.00
8160;BME280;27404;52.398;9.646;2023-03-14T10:48:21;98178.94;;;11.09;100.00
8160;BME280;27404;52.398;9.646;2023-03-14T10:50:56;98174.66;;;11.03;100.00
8160;BME280;27404;52.398;9.646;2023-03-14T10:53:22;98172.44;;;11.05;100.00
8160;BME280;27404;52.398;9.646;2023-03-14T10:55:47;98182.56;;;10.90;100.00
8160;BME280;27404;52.398;9.646;2023-03-14T10:58:31;98180.72;;;10.66;100.00
8160;BME280;27404;52.398;9.646;2023-03-14T11:01:21;98178.50;;;10.69;100.00
8160;BME280;27404;52.398;9.646;2023-03-14T11:04:01;98178.31;;;10.98;100.00
8160;BME280;27404;52.398;9.646;2023-03-14T11:06:44;98170.75;;;11.09;100.00
8160;BME280;27404;52.398;9.646;2023-03-14T11:09:18;98174.66;;;11.03;100.00
8160;BME280;27404;52.398;9.646;2023-03-14T11:11:47;98177.91;;;10.72;100.00
8160;BME280;27404;52.398;9.646;2023-03-14T11:14:20;98255.53;;;10.27;100.00
8160;BME280;27404;52.398;9.646;2023-03-14T11:17:20;98293.69;;;8.85;100.00
8160;BME280;27404;52.398;9.646;2023-03-14T11:19:54;98304.91;;;8.02;100.00
8160;BME280;27404;52.398;9.646;2023-03-14T11:22:37;98330.56;;;7.65;100.00
8160;BME280;27404;52.398;9.646;2023-03-14T11:25:32;98346.81;;;6.87;100.00
8160;BME280;27404;52.398;9.646;2023-03-14T11:33:43;98393.31;;;5.95;100.00
8160;BME280;27404;52.398;9.646;2023-03-14T11:36:16;98390.47;;;5.79;100.00
8160;BME280;27404;52.398;9.646;2023-03-14T11:38:50;98408.38;;;5.80;100.00
8160;BME280;27404;52.398;9.646;2023-03-14T11:41:20;98410.06;;;5.86;100.00
8160;BME280;27404;52.398;9.646;2023-03-14T11:43:49;98430.59;;;5.77;100.00
8160;BME280;27404;52.398;9.646;2023-03-14T11:46:25;98437.00;;;5.66;100.00
8160;BME280;27404;52.398;9.646;2023-03-14T11:51:46;98464.03;;;5.06;100.00
8160;BME280;27404;52.398;9.646;2023-03-14T11:54:25;98473.31;;;4.87;100.00
8160;BME280;27404;52.398;9.646;2023-03-14T11:56:58;98488.81;;;4.53;100.00
8160;BME280;27404;52.398;9.646;2023-03-14T11:59:31;98505.75;;;4.26;100.00
8160;BME280;27404;52.398;9.646;2023-03-14T12:02:04;98537.69;;;4.12;100.00
8160;BME280;27404;52.398;9.646;2023-03-14T12:07:39;98561.38;;;4.05;100.00
8160;BME280;27404;52.398;9.646;2023-03-14T12:10:09;98574.69;;;3.77;100.00
8160;BME280;27404;52.398;9.646;2023-03-14T12:12:34;98604.28;;;3.84;100.00
8160;BME280;27404;52.398;9.646;2023-03-14T12:15:01;98629.19;;;3.86;100.00
8160;BME280;27404;52.398;9.646;2023-03-14T12:17:41;98615.59;;;3.69;100.00
8160;BME280;27404;52.398;9.646;2023-03-14T12:22:53;98652.19;;;3.48;100.00
8160;BME280;27404;52.398;9.646;2023-03-14T12:25:22;98661.25;;;3.30;100.00
8160;BME280;27404;52.398;9.646;2023-03-14T12:28:03;98684.84;;;3.46;100.00
8160;BME280;27404;52.398;9.646;2023-03-14T12:30:38;98708.22;;;3.52;100.00
8160;BME280;27404;52.398;9.646;2023-03-14T12:35:44;98701.31;;;3.33;100.00
8160;BME280;27404;52.398;9.646;2023-03-14T12:38:29;98714.47;;;3.29;100.00
8160;BME280;27404;52.398;9.646;2023-03-14T12:41:05;98729.50;;;3.25;100.00
8160;BME280;27404;52.398;9.646;2023-03-14T12:43:34;98735.34;;;3.46;100.00
8160;BME280;27404;52.398;9.646;2023-03-14T12:46:15;98741.56;;;3.34;100.00
8160;BME280;27404;52.398;9.646;2023-03-14T12:48:46;98734.53;;;3.45;100.00
8160;BME280;27404;52.398;9.646;2023-03-14T12:51:18;98743.44;;;3.46;100.00
8160;BME280;27404;52.398;9.646;2023-03-14T12:59:37;98756.63;;;3.42;100.00
8160;BME280;27404;52.398;9.646;2023-03-14T13:04:35;98796.31;;;3.53;100.00
8160;BME280;27404;52.398;9.646;2023-03-14T13:07:03;98801.34;;;3.85;100.00
8160;BME280;27404;52.398;9.646;2023-03-14T13:11:55;98826.13;;;4.47;100.00
8160;BME280;27404;52.398;9.646;2023-03-14T13:14:23;98840.63;;;4.41;100.00
8160;BME280;27404;52.398;9.646;2023-03-14T13:16:49;98839.38;;;4.20;100.00
8160;BME280;27404;52.398;9.646;2023-03-14T13:19:19;98849.09;;;4.33;100.00
8160;BME280;27404;52.398;9.646;2023-03-14T13:21:47;98847.47;;;4.32;100.00
8160;BME280;27404;52.398;9.646;2023-03-14T13:24:22;98843.59;;;4.68;100.00
8160;BME280;27404;52.398;9.646;2023-03-14T13:26:49;98844.75;;;4.72;100.00
8160;BME280;27404;52.398;9.646;2023-03-14T13:31:50;98859.41;;;5.06;100.00
8160;BME280;27404;52.398;9.646;2023-03-14T13:34:17;98870.88;;;4.67;100.00
8160;BME280;27404;52.398;9.646;2023-03-14T13:36:43;98882.81;;;4.54;100.00
8160;BME280;27404;52.398;9.646;2023-03-14T13:39:20;98899.56;;;4.39;100.00
8160;BME280;27404;52.398;9.646;2023-03-14T13:41:50;98906.38;;;4.29;100.00
8160;BME280;27404;52.398;9.646;2023-03-14T13:47:00;98924.72;;;4.27;100.00
8160;BME280;27404;52.398;9.646;2023-03-14T13:49:27;98924.03;;;4.20;100.00
8160;BME280;27404;52.398;9.646;2023-03-14T13:51:54;98945.66;;;4.32;100.00
8160;BME280;27404;52.398;9.646;2023-03-14T13:54:21;98934.94;;;4.49;100.00
8160;BME280;27404;52.398;9.646;2023-03-14T13:56:47;98950.78;;;4.69;100.00
8160;BME280;27404;52.398;9.646;2023-03-14T13:59:27;98958.53;;;4.78;100.00
8160;BME280;27404;52.398;9.646;2023-03-14T14:01:53;98968.78;;;4.76;100.00
8160;BME280;27404;52.398;9.646;2023-03-14T14:04:24;98973.34;;;4.87;100.00
8160;BME280;27404;52.398;9.646;2023-03-14T14:06:57;98980.91;;;4.73;100.00
8160;BME280;27404;52.398;9.646;2023-03-14T14:09:27;98981.28;;;4.53;100.00